Time;durP1;ratioP1;P1;durP2;ratioP2;P2;SDS_P1;SDS_P2;PMS_P1;PMS_P2;Temp;Humidity;BMP_temperature;BMP_pressure;BME280_temperature;BME280_humidity;BME280_pressure;Samples;Min_cycle;Max_cycle;Signal;HPM_P1;HPM_P2
2021/10/31 00:00:57;;;;;;;1.93;0.77;;;15.70;83.50;;;;;;20800358;28;80075;-73
2021/10/31 00:11:02;;;;;;;3.08;0.80;;;15.70;83.70;;;;;;20800543;28;80763;-68
2021/10/31 00:21:05;;;;;;;1.83;0.80;;;15.80;83.70;;;;;;20800122;28;79995;-67
2021/10/31 00:31:10;;;;;;;2.40;0.70;;;15.80;83.80;;;;;;20799710;28;81802;-70
2021/10/31 00:41:12;;;;;;;3.53;1.40;;;15.90;83.90;;;;;;20812779;28;80678;-68
2021/10/31 00:51:17;;;;;;;3.13;0.70;;;15.90;83.80;;;;;;20812099;28;80679;-72
2021/10/31 01:01:20;;;;;;;2.92;1.20;;;15.90;83.90;;;;;;20809972;28;81695;-68
2021/10/31 01:11:53;;;;;;;6.22;1.42;;;15.90;84.00;;;;;;20808236;28;81150;-67
2021/10/31 01:22:20;;;;;;;3.45;0.45;;;15.80;84.20;;;;;;20809452;28;81699;-68
2021/10/31 01:32:54;;;;;;;1.40;0.65;;;15.90;84.30;;;;;;20800035;28;79966;-75
2021/10/31 01:43:17;;;;;;;2.28;1.02;;;15.90;84.50;;;;;;20804884;28;81511;-73
2021/10/31 01:53:34;;;;;;;3.47;1.30;;;15.90;84.70;;;;;;20796143;28;81135;-74
2021/10/31 02:03:41;;;;;;;3.60;1.23;;;15.90;84.80;;;;;;20803799;28;80159;-70
2021/10/31 02:14:04;;;;;;;2.80;1.25;;;15.90;84.80;;;;;;20805603;28;80247;-70
2021/10/31 02:24:26;;;;;;;;;;;15.80;85.00;;;;;;20806728;28;82130;-69
2021/10/31 02:34:53;;;;;;;5.57;2.30;;;15.80;85.00;;;;;;20828629;28;81845;-69
2021/10/31 02:45:15;;;;;;;7.07;2.80;;;15.70;85.10;;;;;;20804879;28;79966;-68
2021/10/31 02:55:43;;;;;;;4.70;2.63;;;15.80;85.20;;;;;;20803859;28;80648;-71
2021/10/31 03:06:04;;;;;;;5.80;2.85;;;15.80;85.30;;;;;;20803274;28;79781;-69
2021/10/31 03:16:26;;;;;;;5.80;3.47;;;15.60;85.40;;;;;;20804722;28;82260;-69
2021/10/31 03:26:48;;;;;;;6.35;3.67;;;15.60;85.70;;;;;;20802146;28;79862;-69
2021/10/31 03:37:08;;;;;;;6.18;3.65;;;15.50;85.90;;;;;;20796513;28;80863;-71
2021/10/31 03:47:28;;;;;;;7.93;3.85;;;15.60;86.10;;;;;;20799382;28;80392;-66
2021/10/31 03:57:49;;;;;;;9.32;5.70;;;15.60;86.20;;;;;;20791259;28;81824;-68
2021/10/31 04:08:02;;;;;;;9.38;6.20;;;15.60;86.30;;;;;;20801379;28;80447;-69
2021/10/31 04:18:23;;;;;;;13.18;7.60;;;15.60;86.40;;;;;;20815211;27;81855;-72
2021/10/31 04:28:35;;;;;;;13.03;7.53;;;15.70;86.40;;;;;;20812544;28;80743;-68
2021/10/31 04:38:45;;;;;;;12.63;6.45;;;15.50;86.50;;;;;;20814124;28;80190;-67
2021/10/31 04:49:03;;;;;;;10.77;6.13;;;15.60;86.60;;;;;;20812891;28;80787;-71
2021/10/31 04:59:11;;;;;;;12.45;6.72;;;15.60;86.60;;;;;;20809838;28;81259;-70
2021/10/31 05:09:21;;;;;;;10.68;5.45;;;15.40;86.80;;;;;;20810430;28;80819;-69
2021/10/31 05:19:32;;;;;;;9.80;4.57;;;15.50;86.90;;;;;;20809456;28;81112;-70
2021/10/31 05:29:42;;;;;;;7.50;3.30;;;15.60;87.00;;;;;;20809292;28;81759;-68
2021/10/31 05:39:49;;;;;;;7.47;3.78;;;15.70;87.00;;;;;;20854197;27;80607;-73
2021/10/31 05:49:55;;;;;;;6.47;4.32;;;15.70;87.00;;;;;;20892961;27;80755;-73
2021/10/31 05:59:58;;;;;;;7.82;3.85;;;15.70;87.00;;;;;;20891796;27;79884;-74
2021/10/31 06:10:00;;;;;;;6.63;3.63;;;15.70;87.10;;;;;;20890466;28;80844;-71
2021/10/31 06:20:10;;;;;;;8.13;3.28;;;15.60;87.10;;;;;;20890685;27;80655;-72
2021/10/31 06:30:14;;;;;;;3.80;2.35;;;15.80;87.20;;;;;;20889457;28;80585;-71
2021/10/31 06:40:17;;;;;;;;;;;15.90;87.20;;;;;;20888331;28;80739;-71
2021/10/31 06:50:19;;;;;;;3.33;1.52;;;15.70;87.20;;;;;;20910544;28;81878;-71
2021/10/31 07:00:22;;;;;;;3.50;1.50;;;15.80;87.30;;;;;;20888674;27;79990;-69
2021/10/31 07:10:24;;;;;;;3.07;1.50;;;15.90;87.30;;;;;;20920840;27;80936;-67
2021/10/31 07:20:32;;;;;;;2.63;1.20;;;16.00;87.30;;;;;;20883974;27;80176;-68
2021/10/31 07:30:34;;;;;;;1.38;0.70;;;16.20;87.20;;;;;;20828002;28;81123;-71
2021/10/31 07:40:37;;;;;;;;;;;16.40;87.20;;;;;;20807017;28;82132;-68
2021/10/31 07:50:43;;;;;;;2.22;0.60;;;16.60;87.30;;;;;;20846420;28;81658;-70
2021/10/31 08:00:47;;;;;;;5.25;0.98;;;16.80;86.90;;;;;;20899296;27;80197;-71
2021/10/31 08:10:50;;;;;;;2.53;0.90;;;17.00;86.70;;;;;;20898932;27;80731;-71
2021/10/31 08:20:54;;;;;;;1.98;0.90;;;17.10;86.60;;;;;;20898193;27;80934;-72
2021/10/31 08:30:58;;;;;;;3.42;0.50;;;17.50;86.40;;;;;;20897247;27;82032;-70
2021/10/31 08:41:02;;;;;;;1.98;0.60;;;17.80;85.70;;;;;;20890826;27;80726;-70
2021/10/31 08:51:07;;;;;;;3.13;0.50;;;18.00;85.30;;;;;;20853113;27;79954;-70
2021/10/31 09:01:11;;;;;;;9.40;2.90;;;18.50;84.70;;;;;;20894472;27;80716;-61
2021/10/31 09:11:13;;;;;;;1.33;0.50;;;18.40;84.80;;;;;;20892960;27;81796;-60
2021/10/31 09:21:22;;;;;;;1.92;0.47;;;18.40;84.90;;;;;;20858781;27;79943;-60
2021/10/31 09:31:24;;;;;;;2.15;0.40;;;18.40;84.90;;;;;;20892449;27;82049;-65
2021/10/31 09:41:30;;;;;;;7.32;1.20;;;18.80;84.10;;;;;;20886580;27;82071;-61
2021/10/31 09:51:33;;;;;;;3.17;0.60;;;18.80;83.90;;;;;;20885703;27;80675;-63
2021/10/31 10:12:15;;;;;;;2.55;0.80;;;18.70;83.80;;;;;;20887450;27;82098;-63
2021/10/31 10:22:21;;;;;;;6.40;1.98;;;19.00;83.20;;;;;;20884843;27;80611;-61
2021/10/31 10:32:27;;;;;;;1.42;0.75;;;19.40;82.70;;;;;;20887147;27;81930;-60
2021/10/31 10:42:36;;;;;;;4.50;0.73;;;19.60;81.70;;;;;;20887292;27;81832;-60
2021/10/31 10:52:43;;;;;;;3.78;1.00;;;20.10;80.00;;;;;;20886672;27;80606;-62
2021/10/31 11:03:09;;;;;;;6.32;1.08;;;20.40;79.60;;;;;;20884919;27;80960;-60
2021/10/31 11:13:13;;;;;;;2.80;0.63;;;21.10;76.90;;;;;;20884512;28;80806;-62
2021/10/31 11:23:22;;;;;;;2.70;0.80;;;21.40;76.20;;;;;;20883741;27;80985;-61
2021/10/31 11:33:26;;;;;;;3.97;1.02;;;27.00;57.40;;;;;;20883414;27;80710;-60
2021/10/31 11:43:34;;;;;;;2.80;0.65;;;26.70;56.60;;;;;;20883178;27;81138;-58
2021/10/31 11:54:07;;;;;;;5.80;0.80;;;25.90;58.50;;;;;;20882148;27;80543;-58
2021/10/31 12:05:14;;;;;;;4.47;0.85;;;24.80;61.10;;;;;;20881477;27;80722;-57
2021/10/31 12:15:30;;;;;;;8.60;1.95;;;23.30;66.00;;;;;;20881105;27;79929;-60
2021/10/31 12:25:40;;;;;;;6.30;1.95;;;21.70;72.50;;;;;;20882942;27;80896;-60
2021/10/31 12:35:46;;;;;;;4.70;1.63;;;20.20;77.90;;;;;;20874444;27;81213;-60
2021/10/31 12:45:50;;;;;;;7.28;1.02;;;20.90;78.00;;;;;;20846351;27;80196;-58
2021/10/31 12:55:55;;;;;;;6.28;1.90;;;23.30;70.00;;;;;;20858778;28;80771;-60
2021/10/31 13:05:58;;;;;;;6.22;2.05;;;21.00;76.90;;;;;;20836580;27;80783;-62
2021/10/31 13:16:01;;;;;;;7.97;1.37;;;19.90;81.60;;;;;;20809881;28;80961;-61
2021/10/31 13:26:08;;;;;;;2.90;0.77;;;20.30;80.80;;;;;;20819990;27;80823;-58
2021/10/31 13:36:22;;;;;;;6.10;1.27;;;20.30;80.20;;;;;;20880220;28;80603;-58
2021/10/31 13:46:32;;;;;;;2.17;0.63;;;21.90;75.50;;;;;;20889016;28;80598;-58
2021/10/31 13:56:40;;;;;;;3.03;0.95;;;24.90;63.90;;;;;;20891550;28;81893;-59
2021/10/31 14:06:44;;;;;;;5.22;1.20;;;22.60;70.10;;;;;;20850091;27;81639;-59
2021/10/31 14:16:45;;;;;;;7.43;1.48;;;20.70;76.80;;;;;;20878308;28;80754;-60
2021/10/31 14:26:47;;;;;;;5.50;1.17;;;19.50;80.40;;;;;;20888417;28;80548;-65
2021/10/31 14:36:51;;;;;;;3.17;1.17;;;18.90;82.50;;;;;;20879083;27;80930;-61
2021/10/31 14:46:55;;;;;;;3.45;0.98;;;18.50;83.90;;;;;;20871376;27;80090;-57
2021/10/31 14:57:07;;;;;;;2.70;0.85;;;18.40;84.40;;;;;;20802661;28;81756;-63
2021/10/31 15:07:11;;;;;;;4.22;0.82;;;18.30;85.30;;;;;;20834291;27;81918;-58
2021/10/31 15:17:17;;;;;;;4.10;1.02;;;18.10;85.80;;;;;;20861487;27;81100;-61
2021/10/31 15:27:19;;;;;;;4.85;1.23;;;18.00;86.60;;;;;;20864062;27;82175;-60
2021/10/31 15:37:22;;;;;;;;;;;18.00;87.50;;;;;;20866734;27;81474;-61
2021/10/31 15:47:24;;;;;;;7.43;2.30;;;18.20;88.50;;;;;;20893398;27;81776;-61
2021/10/31 15:57:27;;;;;;;7.07;1.65;;;18.10;88.60;;;;;;20870103;28;81469;-61
2021/10/31 16:07:30;;;;;;;4.05;0.88;;;17.90;90.00;;;;;;20878538;27;81543;-61
2021/10/31 16:17:32;;;;;;;;;;;17.90;90.90;;;;;;20884862;27;80948;-62
2021/10/31 16:27:35;;;;;;;4.55;0.95;;;17.90;91.70;;;;;;20906052;27;81774;-63
2021/10/31 16:37:43;;;;;;;3.33;1.27;;;17.90;92.00;;;;;;20883132;27;80787;-62
2021/10/31 16:47:48;;;;;;;4.25;1.90;;;17.90;92.30;;;;;;20879366;27;82085;-62
2021/10/31 16:57:51;;;;;;;3.13;1.23;;;17.90;92.40;;;;;;20880852;28;80561;-64
2021/10/31 17:07:59;;;;;;;3.95;0.85;;;18.00;92.50;;;;;;20880619;27;81678;-61
2021/10/31 17:18:01;;;;;;;5.43;1.20;;;18.00;92.60;;;;;;20876262;27;81761;-62
2021/10/31 17:28:03;;;;;;;3.13;1.20;;;17.90;92.80;;;;;;20880965;28;81848;-62
2021/10/31 17:38:05;;;;;;;5.50;1.43;;;17.90;92.80;;;;;;20901372;27;81802;-61
2021/10/31 17:48:08;;;;;;;2.97;0.70;;;17.90;93.00;;;;;;20892440;27;81898;-64
2021/10/31 17:58:11;;;;;;;1.83;0.82;;;17.80;93.00;;;;;;20892918;27;80734;-64
2021/10/31 18:08:13;;;;;;;2.28;0.98;;;17.90;93.10;;;;;;20901853;28;81726;-64
2021/10/31 18:18:16;;;;;;;2.83;0.85;;;17.90;93.10;;;;;;20888496;27;81789;-77
2021/10/31 18:28:21;;;;;;;1.47;0.70;;;17.90;93.20;;;;;;20890934;27;80738;-73
2021/10/31 18:38:23;;;;;;;2.17;1.20;;;17.90;93.20;;;;;;20828719;28;81867;-74
2021/10/31 18:48:25;;;;;;;3.38;0.88;;;17.90;93.20;;;;;;20824027;27;82178;-76
2021/10/31 18:58:41;;;;;;;2.75;0.82;;;18.00;93.20;;;;;;20823695;27;80797;-73
2021/10/31 19:08:43;;;;;;;1.67;0.50;;;17.90;93.20;;;;;;20876589;28;81939;-74
2021/10/31 19:18:48;;;;;;;2.50;1.10;;;17.90;93.20;;;;;;20878872;28;80597;-75
2021/10/31 19:28:56;;;;;;;3.67;0.70;;;17.90;93.30;;;;;;20879358;27;81819;-72
2021/10/31 19:38:59;;;;;;;3.58;0.85;;;17.90;93.30;;;;;;20881360;27;81734;-76
2021/10/31 19:49:01;;;;;;;;;;;17.40;92.90;;;;;;20891339;27;81347;-74
2021/10/31 19:59:09;;;;;;;1.90;0.88;;;17.10;92.90;;;;;;20920646;27;80714;-75
2021/10/31 20:09:11;;;;;;;6.88;0.90;;;17.00;93.10;;;;;;20897450;28;80584;-76
2021/10/31 20:19:14;;;;;;;2.57;0.50;;;16.90;93.10;;;;;;20894191;27;81752;-76
2021/10/31 20:29:16;;;;;;;9.70;1.27;;;16.60;93.10;;;;;;20894892;28;81604;-76
2021/10/31 20:39:18;;;;;;;;;;;16.40;93.60;;;;;;20890545;27;81432;-76
2021/10/31 20:49:19;;;;;;;;;;;16.40;94.10;;;;;;20909621;27;80603;-76
2021/10/31 20:59:31;;;;;;;;;;;16.40;94.40;;;;;;20910692;28;75602;-77
2021/10/31 21:09:58;;;;;;;;;;;16.40;94.60;;;;;;19391507;28;41209944;-74
2021/10/31 21:20:56;;;;;;;;;;;16.40;94.60;;;;;;1163095;27;72023550;-77
2021/10/31 21:32:40;;;;;;;;;;;16.40;94.60;;;;;;274655;28;72023303;-72
2021/10/31 21:44:43;;;;;;;;;;;16.40;94.60;;;;;;10;72020342;72023265;-75
2021/10/31 21:56:45;;;;;;;;;;;16.50;94.70;;;;;;10;72022229;72024276;-74
2021/10/31 22:08:48;;;;;;;;;;;16.60;94.70;;;;;;10;72021359;72023461;-77
2021/10/31 22:20:50;;;;;;;;;;;16.80;94.70;;;;;;10;72021051;72023931;-77
2021/10/31 22:32:53;;;;;;;;;;;16.90;94.70;;;;;;10;72021181;72023344;-71
2021/10/31 22:44:55;;;;;;;;;;;16.90;94.70;;;;;;10;72021507;72025444;-71
2021/10/31 22:56:57;;;;;;;;;;;17.00;94.80;;;;;;10;72022237;72024109;-70
2021/10/31 23:09:00;;;;;;;;;;;16.40;94.70;;;;;;10;72021002;72024507;-72
2021/10/31 23:21:02;;;;;;;;;;;16.10;94.60;;;;;;10;72021900;72023972;-76
2021/10/31 23:33:04;;;;;;;;;;;15.80;94.70;;;;;;10;72021806;72025370;-72
2021/10/31 23:45:07;;;;;;;;;;;15.80;94.80;;;;;;10;72021244;72023726;-71
2021/10/31 23:57:10;;;;;;;;;;;15.80;94.80;;;;;;10;72020585;72024024;-70
